Aviation Digital Data Service (ADDS)

Output produced by METARs form (1835 UTC 25 September 2017)
found at http://aviationweather.gov/adds/metars/
 
KDFW 251730Z 2518/2624 15012KT P6SM SCT030 BKN200 
     FM261300 14010KT P6SM BKN025 
     FM261700 14010KT P6SM SCT030 BKN200